Time,TemperatureF,DewpointF,PressureIn,WindDirection,WindDirectionDegrees,WindSpeedMPH,WindSpeedGustMPH,Humidity,HourlyPrecipIn,Conditions,Clouds,dailyrainin,SoftwareType,DateUTC
2013-08-17 00:00:00,66.1,60.1,30.11,NNE,23,0.2,0.2,81,0.00,,,0.00,WUHU216HW,2013-08-17 04:00:00,
2013-08-17 00:01:00,66.1,60.1,30.11,NNE,23,0.2,0.2,81,0.00,,,0.00,WUHU216HW,2013-08-17 04:01:00,
2013-08-17 00:06:00,66.1,60.1,30.11,NNE,23,0.2,0.2,81,0.00,,,0.00,WUHU216HW,2013-08-17 04:06:00,
2013-08-17 00:30:00,65.9,60.0,30.11,NNE,23,0.7,0.7,81,0.00,,,0.00,WUHU216HW,2013-08-17 04:30:00,
2013-08-17 00:35:00,65.9,60.0,30.11,NNE,23,0.7,0.7,81,0.00,,,0.00,WUHU216HW,2013-08-17 04:35:00,
2013-08-17 01:00:00,65.9,60.0,30.11,North,0,0.2,0.2,81,0.00,,,0.00,WUHU216HW,2013-08-17 05:00:00,
2013-08-17 01:05:00,65.9,60.0,30.11,North,0,0.2,0.2,81,0.00,,,0.00,WUHU216HW,2013-08-17 05:05:00,
2013-08-17 01:30:00,65.9,60.0,30.10,WSW,248,0.0,0.0,81,0.00,,,0.00,WUHU216HW,2013-08-17 05:30:00,
2013-08-17 01:35:00,65.9,60.0,30.10,WSW,248,0.0,0.0,81,0.00,,,0.00,WUHU216HW,2013-08-17 05:35:00,
2013-08-17 02:00:00,65.9,60.0,30.10,NNE,23,0.2,0.2,81,0.00,,,0.00,WUHU216HW,2013-08-17 06:00:00,
2013-08-17 02:04:00,65.9,60.0,30.10,NNE,23,0.2,0.2,81,0.00,,,0.00,WUHU216HW,2013-08-17 06:04:00,
2013-08-17 02:30:00,65.9,60.0,30.08,North,0,2.2,2.2,81,0.00,,,0.00,WUHU216HW,2013-08-17 06:30:00,
2013-08-17 02:35:00,65.9,60.0,30.08,North,0,2.2,2.2,81,0.00,,,0.00,WUHU216HW,2013-08-17 06:35:00,
2013-08-17 03:00:00,65.9,60.0,30.08,NNE,23,0.4,0.4,81,0.00,,,0.00,WUHU216HW,2013-08-17 07:00:00,
2013-08-17 03:05:00,65.9,60.0,30.08,NNE,23,0.4,0.4,81,0.00,,,0.00,WUHU216HW,2013-08-17 07:05:00,
2013-08-17 03:30:00,65.9,60.0,30.08,North,0,0.9,0.9,81,0.00,,,0.00,WUHU216HW,2013-08-17 07:30:00,
2013-08-17 03:35:00,65.9,60.0,30.08,North,0,0.9,0.9,81,0.00,,,0.00,WUHU216HW,2013-08-17 07:35:00,
2013-08-17 04:00:00,65.9,60.0,30.08,NE,45,0.0,0.0,81,0.00,,,0.00,WUHU216HW,2013-08-17 08:00:00,
2013-08-17 04:04:00,65.9,60.0,30.08,NE,45,0.0,0.0,81,0.00,,,0.00,WUHU216HW,2013-08-17 08:04:00,
2013-08-17 04:30:00,65.7,59.8,30.08,North,0,0.4,0.4,81,0.00,,,0.00,WUHU216HW,2013-08-17 08:30:00,
2013-08-17 04:35:00,65.7,59.8,30.08,North,0,0.4,0.4,81,0.00,,,0.00,WUHU216HW,2013-08-17 08:35:00,
2013-08-17 05:00:00,65.7,60.0,30.08,NNE,23,0.4,0.4,82,0.00,,,0.00,WUHU216HW,2013-08-17 09:00:00,
2013-08-17 05:05:00,65.7,60.0,30.08,NNE,23,0.4,0.4,82,0.00,,,0.00,WUHU216HW,2013-08-17 09:05:00,
2013-08-17 05:30:00,65.9,60.2,30.08,North,0,0.9,0.9,82,0.00,,,0.00,WUHU216HW,2013-08-17 09:30:00,
2013-08-17 05:35:00,65.9,60.2,30.08,North,0,0.9,0.9,82,0.00,,,0.00,WUHU216HW,2013-08-17 09:35:00,
2013-08-17 06:00:00,65.7,60.0,30.08,NE,45,0.9,0.9,82,0.00,,,0.00,WUHU216HW,2013-08-17 10:00:00,
2013-08-17 06:05:00,65.7,60.0,30.08,NE,45,0.9,0.9,82,0.00,,,0.00,WUHU216HW,2013-08-17 10:05:00,
2013-08-17 06:30:00,65.9,60.2,30.08,East,90,0.9,0.9,82,0.00,,,0.00,WUHU216HW,2013-08-17 10:30:00,
2013-08-17 06:35:00,65.9,60.2,30.08,East,90,0.9,0.9,82,0.00,,,0.00,WUHU216HW,2013-08-17 10:35:00,
2013-08-17 07:00:00,65.9,60.2,30.10,North,0,1.1,1.1,82,0.00,,,0.00,WUHU216HW,2013-08-17 11:00:00,
2013-08-17 07:05:00,65.9,60.2,30.10,North,0,1.1,1.1,82,0.00,,,0.00,WUHU216HW,2013-08-17 11:05:00,
2013-08-17 07:30:00,65.9,60.6,30.10,NNE,23,0.4,0.4,83,0.00,,,0.00,WUHU216HW,2013-08-17 11:30:00,
2013-08-17 07:35:00,65.9,60.6,30.10,NNE,23,0.4,0.4,83,0.00,,,0.00,WUHU216HW,2013-08-17 11:35:00,
2013-08-17 08:00:00,66.2,60.9,30.10,North,0,1.3,1.3,83,0.00,,,0.00,WUHU216HW,2013-08-17 12:00:00,
2013-08-17 08:05:00,66.2,60.9,30.10,North,0,1.3,1.3,83,0.00,,,0.00,WUHU216HW,2013-08-17 12:05:00,
2013-08-17 08:06:00,66.2,60.9,30.10,North,0,1.3,1.3,83,0.00,,,0.00,WUHU216HW,2013-08-17 12:06:00,
2013-08-17 08:30:00,66.2,61.2,30.09,NE,45,0.4,0.4,84,0.00,,,0.00,WUHU216HW,2013-08-17 12:30:00,
2013-08-17 08:35:00,66.2,61.2,30.09,NE,45,0.4,0.4,84,0.00,,,0.00,WUHU216HW,2013-08-17 12:35:00,
2013-08-17 09:00:00,66.4,61.7,30.10,East,90,0.2,0.2,85,0.00,,,0.00,WUHU216HW,2013-08-17 13:00:00,
2013-08-17 09:05:00,66.4,61.7,30.10,East,90,0.2,0.2,85,0.00,,,0.00,WUHU216HW,2013-08-17 13:05:00,
2013-08-17 09:30:00,66.6,62.3,30.11,NE,45,1.1,1.1,86,0.00,,,0.00,WUHU216HW,2013-08-17 13:30:00,
2013-08-17 09:35:00,66.6,62.3,30.11,NE,45,1.1,1.1,86,0.00,,,0.00,WUHU216HW,2013-08-17 13:35:00,
2013-08-17 10:00:00,67.0,63.3,30.11,ENE,68,0.4,0.4,88,0.00,,,0.00,WUHU216HW,2013-08-17 14:00:00,
2013-08-17 10:05:00,67.0,63.3,30.11,ENE,68,0.4,0.4,88,0.00,,,0.00,WUHU216HW,2013-08-17 14:05:00,
2013-08-17 10:30:00,67.3,63.3,30.12,North,0,0.9,0.9,87,0.00,,,0.00,WUHU216HW,2013-08-17 14:30:00,
2013-08-17 10:35:00,67.3,63.3,30.12,North,0,0.9,0.9,87,0.00,,,0.00,WUHU216HW,2013-08-17 14:35:00,
2013-08-17 10:40:00,67.3,63.3,30.12,North,0,0.9,0.9,87,0.00,,,0.00,WUHU216HW,2013-08-17 14:40:00,
2013-08-17 11:00:00,67.9,63.8,30.12,NNE,23,0.9,0.9,87,0.00,,,0.00,WUHU216HW,2013-08-17 15:00:00,
2013-08-17 11:05:00,67.9,63.8,30.12,NNE,23,0.9,0.9,87,0.00,,,0.00,WUHU216HW,2013-08-17 15:05:00,
2013-08-17 11:30:00,68.2,64.2,30.12,NNE,23,0.9,0.9,87,0.00,,,0.00,WUHU216HW,2013-08-17 15:30:00,
2013-08-17 11:35:00,68.2,64.2,30.12,NNE,23,0.9,0.9,87,0.00,,,0.00,WUHU216HW,2013-08-17 15:35:00,
2013-08-17 12:00:00,68.8,64.7,30.11,ENE,68,0.4,0.4,87,0.00,,,0.00,WUHU216HW,2013-08-17 16:00:00,
2013-08-17 12:04:00,68.8,64.7,30.11,ENE,68,0.4,0.4,87,0.00,,,0.00,WUHU216HW,2013-08-17 16:04:00,
2013-08-17 12:30:00,69.1,65.1,30.11,East,90,0.4,0.4,87,0.00,,,0.00,WUHU216HW,2013-08-17 16:30:00,
2013-08-17 12:35:00,69.1,65.1,30.11,East,90,0.4,0.4,87,0.00,,,0.00,WUHU216HW,2013-08-17 16:35:00,
2013-08-17 13:00:00,69.3,65.6,30.11,ENE,68,0.7,0.7,88,0.00,,,0.00,WUHU216HW,2013-08-17 17:00:00,
2013-08-17 13:05:00,69.3,65.6,30.11,ENE,68,0.7,0.7,88,0.00,,,0.00,WUHU216HW,2013-08-17 17:05:00,
2013-08-17 13:30:00,69.7,65.9,30.10,ENE,68,0.4,0.4,88,0.00,,,0.00,WUHU216HW,2013-08-17 17:30:00,
2013-08-17 13:35:00,69.7,65.9,30.10,ENE,68,0.4,0.4,88,0.00,,,0.00,WUHU216HW,2013-08-17 17:35:00,
2013-08-17 14:00:00,70.4,67.0,30.09,ENE,68,0.4,0.4,89,0.01,,,0.00,WUHU216HW,2013-08-17 18:00:00,
2013-08-17 14:05:00,70.4,67.0,30.09,ENE,68,0.4,0.4,89,0.01,,,0.00,WUHU216HW,2013-08-17 18:05:00,
2013-08-17 14:30:00,70.7,67.7,30.08,NE,45,0.9,0.9,90,0.06,,,0.01,WUHU216HW,2013-08-17 18:30:00,
2013-08-17 14:35:00,70.7,67.7,30.08,NE,45,0.9,0.9,90,0.06,,,0.01,WUHU216HW,2013-08-17 18:35:00,
2013-08-17 15:00:00,71.1,68.0,30.07,NE,45,0.4,0.4,90,0.13,,,0.06,WUHU216HW,2013-08-17 19:00:00,
2013-08-17 15:04:00,71.1,68.0,30.07,NE,45,0.4,0.4,90,0.13,,,0.06,WUHU216HW,2013-08-17 19:04:00,
2013-08-17 15:09:00,71.1,68.0,30.07,NE,45,0.4,0.4,90,0.13,,,0.06,WUHU216HW,2013-08-17 19:09:00,
2013-08-17 15:30:00,71.3,68.2,30.06,NNE,23,0.7,0.7,90,0.09,,,0.14,WUHU216HW,2013-08-17 19:30:00,
2013-08-17 15:35:00,71.3,68.2,30.06,NNE,23,0.7,0.7,90,0.09,,,0.14,WUHU216HW,2013-08-17 19:35:00,
2013-08-17 16:00:00,71.6,68.9,30.06,NNE,23,0.4,0.4,91,0.02,,,0.15,WUHU216HW,2013-08-17 20:00:00,
2013-08-17 16:05:00,71.6,68.9,30.06,NNE,23,0.4,0.4,91,0.02,,,0.15,WUHU216HW,2013-08-17 20:05:00,
2013-08-17 16:30:00,72.0,69.2,30.06,NNE,23,0.2,0.2,91,0.03,,,0.16,WUHU216HW,2013-08-17 20:30:00,
2013-08-17 16:35:00,72.0,69.2,30.06,NNE,23,0.2,0.2,91,0.03,,,0.16,WUHU216HW,2013-08-17 20:35:00,
2013-08-17 17:00:00,71.8,69.0,30.06,ENE,68,0.0,0.0,91,0.02,,,0.18,WUHU216HW,2013-08-17 21:00:00,
2013-08-17 17:04:00,71.8,69.0,30.06,ENE,68,0.0,0.0,91,0.02,,,0.18,WUHU216HW,2013-08-17 21:04:00,
2013-08-17 17:30:00,71.8,69.0,30.06,NE,45,0.7,0.7,91,0.00,,,0.18,WUHU216HW,2013-08-17 21:30:00,
2013-08-17 17:35:00,71.8,69.0,30.06,NE,45,0.7,0.7,91,0.00,,,0.18,WUHU216HW,2013-08-17 21:35:00,
2013-08-17 18:00:00,71.6,68.9,30.06,NNE,23,1.1,1.1,91,0.02,,,0.18,WUHU216HW,2013-08-17 22:00:00,
2013-08-17 18:05:00,71.6,68.9,30.06,NNE,23,1.1,1.1,91,0.02,,,0.18,WUHU216HW,2013-08-17 22:05:00,
2013-08-17 18:30:00,71.3,68.5,30.06,NE,45,0.0,0.0,91,0.03,,,0.20,WUHU216HW,2013-08-17 22:30:00,
2013-08-17 18:35:00,71.3,68.5,30.06,NE,45,0.0,0.0,91,0.03,,,0.20,WUHU216HW,2013-08-17 22:35:00,
2013-08-17 19:00:00,70.9,68.1,30.06,NE,45,0.9,0.9,91,0.01,,,0.21,WUHU216HW,2013-08-17 23:00:00,
2013-08-17 19:05:00,70.9,68.1,30.06,NE,45,0.9,0.9,91,0.01,,,0.21,WUHU216HW,2013-08-17 23:05:00,
2013-08-17 19:30:00,70.6,67.8,30.07,NE,45,0.4,0.4,91,0.02,,,0.22,WUHU216HW,2013-08-17 23:30:00,
2013-08-17 19:35:00,70.6,67.8,30.07,NE,45,0.4,0.4,91,0.02,,,0.22,WUHU216HW,2013-08-17 23:35:00,
2013-08-17 20:00:00,70.4,67.6,30.07,ENE,68,0.0,0.0,91,0.03,,,0.23,WUHU216HW,2013-08-18 00:00:00,
2013-08-17 20:05:00,70.4,67.6,30.07,ENE,68,0.0,0.0,91,0.03,,,0.23,WUHU216HW,2013-08-18 00:05:00,
2013-08-17 20:30:00,70.4,67.6,30.08,ENE,68,0.0,0.0,91,0.06,,,0.25,WUHU216HW,2013-08-18 00:30:00,
2013-08-17 20:35:00,70.4,67.6,30.08,ENE,68,0.0,0.0,91,0.06,,,0.25,WUHU216HW,2013-08-18 00:35:00,
2013-08-17 21:00:00,70.0,67.2,30.08,NE,45,0.2,0.2,91,0.05,,,0.29,WUHU216HW,2013-08-18 01:00:00,
2013-08-17 21:05:00,70.0,67.2,30.08,NE,45,0.2,0.2,91,0.05,,,0.29,WUHU216HW,2013-08-18 01:05:00,
2013-08-17 21:30:00,70.0,67.2,30.09,ESE,113,1.6,1.6,91,0.01,,,0.30,WUHU216HW,2013-08-18 01:30:00,
2013-08-17 21:35:00,70.0,67.2,30.09,ESE,113,1.6,1.6,91,0.01,,,0.30,WUHU216HW,2013-08-18 01:35:00,
2013-08-17 22:00:00,70.0,67.2,30.10,East,90,0.4,0.4,91,0.00,,,0.30,WUHU216HW,2013-08-18 02:00:00,
2013-08-17 22:05:00,70.0,67.2,30.10,East,90,0.4,0.4,91,0.00,,,0.30,WUHU216HW,2013-08-18 02:05:00,
2013-08-17 22:30:00,69.7,67.2,30.08,NE,45,0.4,0.4,92,0.00,,,0.30,WUHU216HW,2013-08-18 02:30:00,
2013-08-17 22:35:00,69.7,67.2,30.08,NE,45,0.4,0.4,92,0.00,,,0.30,WUHU216HW,2013-08-18 02:35:00,
2013-08-17 23:00:00,69.7,67.2,30.09,ENE,68,0.0,0.0,92,0.00,,,0.30,WUHU216HW,2013-08-18 03:00:00,
2013-08-17 23:05:00,69.7,67.2,30.09,ENE,68,0.0,0.0,92,0.00,,,0.30,WUHU216HW,2013-08-18 03:05:00,
2013-08-17 23:30:00,69.8,67.4,30.09,ENE,68,0.2,0.2,92,0.00,,,0.30,WUHU216HW,2013-08-18 03:30:00,
2013-08-17 23:35:00,69.8,67.4,30.09,ENE,68,0.2,0.2,92,0.00,,,0.30,WUHU216HW,2013-08-18 03:35:00,